Latest Weather Observations for Curtin

IDW60801

Issued at 6:04 am WST Thursday 19 October 2017 (issued every 30 minutes, with the page automatically refreshed every 10 minutes)

About weather observations | Map of weather stations | Latest weather observations for WA | Other Formats
Station Details ID: 003080 Name: CURTIN AERO Lat: -17.58 Lon: 123.83 Height: 77.5 m
Data from the previous 72 hours. | See also: Recent months at Curtin
Date/Time
WST
Temp
°C
App
Temp
°C
Dew
Point
°C
Rel
Hum
%
Delta-T
°C
Wind Press
QNH
hPa
Press
MSL
hPa
Rain since
9am
mm
Dir  Spd
km/h
Gust
km/h
Spd
kts
Gust
kts
19/06:00am 26.3 23.9 13.8 46 7.4 SSW 19 22 10 12 1006.4 1005.8 0.0
19/05:30am 25.3 23.3 13.8 49 6.8 SSW 17 20 9 11 1006.3 1005.7 0.0
19/05:00am 25.3 23.4 14.1 50 6.7 SSW 17 20 9 11 1006.0 1005.4 0.0
19/04:30am 25.3 23.5 14.4 50 6.5 SSW 17 19 9 10 1005.6 1005.0 0.0
19/04:00am 25.3 23.9 14.4 50 6.5 SSW 15 19 8 10 1005.3 1004.7 0.0
19/03:30am 25.6 24.3 14.7 51 6.5 SW 15 17 8 9 1005.1 1004.5 0.0
19/03:00am 25.9 24.2 14.7 50 6.8 SW 17 19 9 10 1005.0 1004.4 0.0
19/02:30am 26.3 24.3 15.0 49 6.8 SW 19 20 10 11 1005.0 1004.4 0.0
19/02:00am 26.5 25.1 15.5 50 6.7 SW 17 22 9 12 1005.1 1004.5 0.0
19/01:30am 26.8 25.5 15.8 51 6.7 SW 17 20 9 11 1005.4 1004.8 0.0
19/01:00am 27.4 25.6 16.1 50 7.0 SW 20 26 11 14 1005.8 1005.2 0.0
19/12:30am 27.8 26.3 16.4 50 7.1 SW 19 24 10 13 1005.9 1005.3 0.0
19/12:00am 28.5 27.0 16.7 48 7.4 SW 20 24 11 13 1006.3 1005.7 0.0
 
Date/Time
WST
Temp
°C
App
Temp
°C
Dew
Point
°C
Rel
Hum
%
Delta-T
°C
Wind Press
QNH
hPa
Press
MSL
hPa
Rain since
9am
mm
Dir  Spd
km/h
Gust
km/h
Spd
kts
Gust
kts
18/11:30pm 28.6 27.7 16.8 48 7.4 SW 17 20 9 11 1006.6 1006.0 0.0
18/11:00pm 29.0 27.6 16.5 46 7.8 WSW 19 26 10 14 1006.9 1006.3 0.0
18/10:30pm 29.9 27.9 15.6 42 8.8 WSW 20 26 11 14 1007.1 1006.5 0.0
18/10:00pm 30.4 28.4 14.9 39 9.5 WSW 19 20 10 11 1007.2 1006.6 0.0
18/09:30pm 31.2 28.6 13.9 35 10.5 WSW 20 26 11 14 1007.2 1006.6 0.0
18/09:00pm 31.6 29.1 13.4 33 11.0 WSW 19 22 10 12 1007.1 1006.5 0.0
18/08:30pm 32.0 30.3 13.7 33 11.1 WSW 15 19 8 10 1006.9 1006.3 0.0
18/08:00pm 32.1 30.8 13.8 33 11.1 W 13 17 7 9 1006.8 1006.2 0.0
18/07:30pm 32.3 31.5 16.2 38 10.1 W 15 20 8 11 1006.5 1005.9 0.0
18/07:00pm 30.9 32.8 20.5 54 6.9 NW 11 15 6 8 1006.1 1005.5 0.0
18/06:30pm 31.3 33.3 19.9 50 7.5 NW 9 13 5 7 1005.5 1004.9 0.0
18/06:00pm 32.7 34.3 19.9 46 8.5 NW 11 15 6 8 1005.0 1004.4 0.0
18/05:30pm 34.7 35.0 18.7 38 10.5 NW 15 20 8 11 1004.4 1003.8 0.0
18/05:00pm 39.5 38.9 11.6 19 16.9 SSW 6 7 3 4 1004.0 1003.4 0.0
18/04:30pm 38.5 37.9 12.3 21 15.9 S 7 11 4 6 1003.8 1003.2 0.0
18/04:00pm 39.2 36.8 11.3 19 16.8 SSE 15 19 8 10 1003.8 1003.2 0.0
18/03:30pm 39.5 37.1 9.9 17 17.5 S 13 17 7 9 1003.8 1003.2 0.0
18/03:00pm 40.2 37.2 10.5 17 17.8 S 17 24 9 13 1003.8 1003.2 0.0
18/02:30pm 40.9 38.5 10.1 16 18.3 WSW 13 22 7 12 1003.8 1003.2 0.0
18/02:00pm 40.9 37.1 9.2 15 18.7 SSW 19 28 10 15 1004.0 1003.4 0.0
18/01:30pm 41.1 37.4 9.3 15 18.7 SSE 19 28 10 15 1004.3 1003.7 0.0
18/01:00pm 40.7 36.7 9.0 15 18.6 SSW 20 33 11 18 1004.9 1004.3 0.0
18/12:30pm 40.2 36.5 9.6 16 18.0 S 19 32 10 17 1005.5 1004.9 0.0
18/12:00pm 39.9 36.1 11.1 18 17.4 SSE 22 33 12 18 1006.0 1005.4 0.0
18/11:30am 39.1 36.9 12.0 20 16.5 S 15 26 8 14 1006.6 1006.0 0.0
18/11:00am 38.5 35.8 13.0 22 15.7 SSW 19 32 10 17 1007.0 1006.4 0.0
18/10:30am 37.4 34.5 14.0 24 14.5 SSW 22 32 12 17 1007.6 1007.0 0.0
18/10:00am 35.6 33.5 14.8 28 13.0 SSW 19 28 10 15 1008.0 1007.4 0.0
18/09:30am 34.8 33.8 16.6 33 11.6 S 17 20 9 11 1008.3 1007.7 0.0
18/09:00am 33.7 32.1 16.6 36 10.9 SSW 20 28 11 15 1008.6 1008.0 0.0
18/08:30am 32.9 31.4 15.4 35 10.9 SSW 17 28 9 15 1008.6 1008.0 0.0
18/08:00am 31.5 31.0 17.8 44 8.8 SW 17 26 9 14 1008.5 1007.9 0.0
18/07:30am 29.7 30.4 19.7 55 6.6 SW 15 22 8 12 1008.4 1007.8 0.0
18/07:00am 27.3 28.0 20.4 66 4.5 SW 17 20 9 11 1008.1 1007.5 0.0
18/06:30am 25.8 26.2 21.0 75 3.2 SW 20 26 11 14 1007.8 1007.2 0.0
18/06:00am 25.2 26.0 21.3 79 2.6 SW 19 24 10 13 1007.5 1006.9 0.0
18/05:30am 24.6 25.4 21.3 82 2.2 SW 19 22 10 12 1007.2 1006.6 0.0
18/05:00am 24.5 25.7 21.4 83 2.1 SW 17 19 9 10 1006.9 1006.3 0.0
18/04:30am 24.6 26.1 21.3 82 2.2 SW 15 17 8 9 1006.7 1006.1 0.0
18/04:00am 24.8 26.4 21.5 82 2.2 SW 15 19 8 10 1006.4 1005.8 0.0
18/03:30am 25.1 26.5 21.8 82 2.2 SW 17 19 9 10 1006.3 1005.7 0.0
18/03:00am 25.4 26.5 21.9 81 2.3 SW 19 22 10 12 1006.0 1005.4 0.0
18/02:30am 25.6 26.7 21.9 80 2.5 SW 19 24 10 13 1005.9 1005.3 0.0
18/02:00am 25.7 26.6 21.6 78 2.7 SW 19 22 10 12 1005.9 1005.3 0.0
18/01:30am 25.9 27.0 21.3 76 3.1 SW 17 20 9 11 1006.0 1005.4 0.0
18/01:00am 26.2 27.2 21.0 73 3.4 WSW 17 20 9 11 1006.1 1005.5 0.0
18/12:30am 26.4 27.4 20.3 69 4.0 WSW 15 19 8 10 1006.3 1005.7 0.0
18/12:00am 26.9 27.2 19.5 64 4.8 WSW 17 20 9 11 1006.6 1006.0 0.0
 
Date/Time
WST
Temp
°C
App
Temp
°C
Dew
Point
°C
Rel
Hum
%
Delta-T
°C
Wind Press
QNH
hPa
Press
MSL
hPa
Rain since
9am
mm
Dir  Spd
km/h
Gust
km/h
Spd
kts
Gust
kts
17/11:30pm 27.1 27.6 19.2 62 5.1 WSW 15 19 8 10 1006.8 1006.2 0.0
17/11:00pm 27.3 29.0 19.4 62 5.1 W 9 13 5 7 1007.0 1006.4 0.0
17/10:30pm 28.2 28.8 19.4 59 5.7 WSW 15 20 8 11 1007.2 1006.6 0.0
17/10:00pm 28.5 29.7 20.0 60 5.6 W 13 17 7 9 1007.2 1006.6 0.0
17/09:30pm 29.4 30.4 20.3 58 6.0 W 15 20 8 11 1007.1 1006.5 0.0
17/09:00pm 30.2 29.8 20.2 55 6.6 WSW 22 28 12 15 1007.0 1006.4 0.0
17/08:30pm 30.9 31.1 20.5 54 6.9 W 20 24 11 13 1007.0 1006.4 0.0
17/08:00pm 31.8 33.2 20.4 51 7.6 W 13 17 7 9 1006.7 1006.1 0.0
17/07:30pm 32.2 33.6 21.1 52 7.5 W 15 22 8 12 1006.3 1005.7 0.0
17/07:00pm 31.9 34.8 21.7 54 6.9 NW 9 11 5 6 1005.7 1005.1 0.0
17/06:30pm 32.0 34.5 21.8 54 6.9 NW 11 17 6 9 1005.2 1004.6 0.0
17/06:00pm 32.6 33.9 20.8 49 7.9 NW 15 20 8 11 1004.6 1004.0 0.0
17/05:30pm 34.2 35.5 20.2 43 9.4 NW 13 20 7 11 1004.0 1003.4 0.0
17/05:00pm 36.3 37.6 20.1 38 10.9 NW 13 20 7 11 1003.6 1003.0 0.0
17/04:30pm 36.7 37.1 17.3 31 12.6 NW 11 15 6 8 1003.4 1002.8 0.0
17/04:00pm 38.6 37.1 13.1 22 15.7 W 13 15 7 8 1003.1 1002.5 0.0
17/03:30pm 38.8 36.7 11.0 19 16.6 WSW 13 15 7 8 1003.1 1002.5 0.0
17/03:00pm 39.1 37.4 11.3 19 16.8 WSW 11 17 6 9 1003.2 1002.6 0.0
17/02:30pm 39.6 37.5 12.4 20 16.6 SW 15 20 8 11 1003.3 1002.7 0.0
17/02:00pm 39.6 36.6 12.4 20 16.7 WSW 20 24 11 13 1003.6 1003.0 0.0
17/01:30pm 40.0 38.3 11.2 18 17.3 WSW 11 15 6 8 1003.9 1003.3 0.0
17/01:00pm 39.6 37.1 12.4 20 16.7 SSW 17 20 9 11 1004.3 1003.7 0.0
17/12:30pm 38.4 36.0 11.5 20 16.2 S 15 24 8 13 1004.8 1004.2 0.0
17/12:00pm 38.6 37.9 14.4 24 15.2 WNW 11 17 6 9 1005.2 1004.6 0.0
17/11:30am 37.2 36.8 16.2 29 13.4 W 13 26 7 14 1005.9 1005.3 0.0
17/11:00am 35.4 36.1 18.0 35 11.4 WNW 11 15 6 8 1006.3 1005.7 0.0
17/10:30am 35.0 35.4 16.3 32 11.9 W 9 17 5 9 1006.8 1006.2 0.0
17/10:00am 34.9 34.9 16.2 32 11.9 SW 11 17 6 9 1007.3 1006.7 0.0
17/09:30am 33.6 32.9 16.5 36 10.9 SW 15 19 8 10 1007.4 1006.8 0.0
17/09:00am 31.5 31.9 18.1 44 8.7 SW 13 19 7 10 1007.7 1007.1 0.0
17/08:30am 31.0 30.3 17.3 43 8.7 SW 17 22 9 12 1007.7 1007.1 0.0
17/08:00am 30.8 29.6 17.1 43 8.7 SW 19 24 10 13 1007.8 1007.2 0.0
17/07:30am 28.2 28.7 19.2 58 5.8 SW 15 20 8 11 1007.6 1007.0 0.0
17/07:00am 27.6 28.2 19.4 61 5.3 SW 15 19 8 10 1007.4 1006.8 0.0
17/06:30am 27.5 27.8 19.6 62 5.1 SW 17 20 9 11 1007.1 1006.5 0.0
17/06:00am 27.1 28.6 19.7 64 4.8 SW 11 15 6 8 1006.9 1006.3 0.0
17/05:30am 26.7 28.1 20.3 68 4.2 SW 13 15 7 8 1006.6 1006.0 0.0
17/05:00am 26.6 28.9 20.7 70 3.9 WSW 9 13 5 7 1006.4 1005.8 0.0
17/04:30am 26.6 28.3 20.9 71 3.8 SW 13 15 7 8 1006.3 1005.7 0.0
17/04:00am 26.7 28.0 20.8 70 3.9 SW 15 17 8 9 1005.8 1005.2 0.0
17/03:30am 26.7 27.8 20.5 69 4.1 SW 15 17 8 9 1005.6 1005.0 0.0
17/03:00am 26.7 27.7 20.3 68 4.2 WSW 15 17 8 9 1005.4 1004.8 0.0
17/02:30am 26.8 28.2 20.4 68 4.2 SW 13 17 7 9 1005.4 1004.8 0.0
17/02:00am 26.7 28.2 20.5 69 4.1 WSW 13 15 7 8 1005.3 1004.7 0.0
17/01:30am 26.9 28.7 20.3 67 4.3 WSW 11 13 6 7 1005.4 1004.8 0.0
17/01:00am 27.2 28.4 19.8 64 4.8 WSW 13 15 7 8 1005.6 1005.0 0.0
17/12:30am 27.7 28.5 19.8 62 5.2 WSW 15 17 8 9 1005.8 1005.2 0.0
17/12:00am 27.9 29.1 19.9 61 5.2 SW 13 15 7 8 1006.1 1005.5 0.0
 
Date/Time
WST
Temp
°C
App
Temp
°C
Dew
Point
°C
Rel
Hum
%
Delta-T
°C
Wind Press
QNH
hPa
Press
MSL
hPa
Rain since
9am
mm
Dir  Spd
km/h
Gust
km/h
Spd
kts
Gust
kts
16/11:30pm 27.9 30.4 21.0 66 4.6 WSW 9 11 5 6 1006.3 1005.7 0.0
16/11:00pm 28.1 30.3 20.4 63 5.1 W 9 11 5 6 1006.5 1005.9 0.0
16/10:30pm 28.4 31.0 20.4 62 5.3 W 7 9 4 5 1006.9 1006.3 0.0
16/10:00pm 28.4 30.6 20.4 62 5.3 W 9 11 5 6 1007.1 1006.5 0.0
16/09:30pm 27.8 30.6 20.4 64 4.9 N 6 7 3 4 1007.0 1006.4 0.0
16/09:00pm 29.6 31.9 19.9 56 6.4 W 7 11 4 6 1006.7 1006.1 0.0
16/08:30pm 29.7 32.1 20.0 56 6.4 W 7 9 4 5 1006.6 1006.0 0.0
16/08:00pm 29.6 32.3 20.2 57 6.2 WNW 6 7 3 4 1006.4 1005.8 0.0
16/07:30pm 30.8 32.8 19.2 50 7.6 WNW 7 9 4 5 1006.0 1005.4 0.0
16/07:00pm 31.6 32.5 19.2 47 8.1 W 13 17 7 9 1005.7 1005.1 0.0
16/06:30pm 32.5 33.8 20.1 48 8.2 WNW 13 19 7 10 1005.5 1004.9 0.0
16/06:00pm 32.8 33.9 19.7 46 8.7 NW 13 17 7 9 1005.1 1004.5 0.0
16/05:30pm 33.6 34.1 19.3 43 9.4 NNW 15 24 8 13 1004.6 1004.0 0.0
16/05:00pm 34.7 34.2 19.1 39 10.3 NW 20 32 11 17 1004.0 1003.4 0.0
16/04:30pm 37.3 36.0 16.8 29 13.2 NW 19 26 10 14 1003.6 1003.0 0.0
16/04:00pm 39.2 39.2 13.6 22 15.9 NW 6 11 3 6 1003.4 1002.8 0.0
16/03:30pm 38.4 37.9 12.2 21 15.9 NNE 6 9 3 5 1003.3 1002.7 0.0
16/03:00pm 38.9 39.6 17.1 28 14.2 ENE 9 15 5 8 1003.5 1002.9 0.0
16/02:30pm 38.0 38.8 17.4 29 13.4 NW 9 11 5 6 1003.7 1003.1 0.0
16/02:00pm 39.0 40.1 18.8 30 13.5 WNW 11 17 6 9 1004.1 1003.5 0.0
16/01:30pm 37.8 38.0 17.7 30 13.1 WNW 13 22 7 12 1004.5 1003.9 0.0
16/01:00pm 37.9 38.4 18.3 31 12.9 WNW 13 24 7 13 1005.0 1004.4 0.0
16/12:30pm 38.3 39.8 19.7 34 12.5 N 11 17 6 9 1005.5 1004.9 0.0
16/12:00pm 37.8 37.9 18.3 32 12.9 NNW 15 20 8 11 1006.2 1005.6 0.0
16/11:30am 36.5 37.7 19.0 35 11.6 N 11 19 6 10 1006.8 1006.2 0.0
16/11:00am 35.7 37.0 19.2 38 11.0 NNE 11 17 6 9 1007.4 1006.8 0.0
16/10:30am 35.0 37.8 21.6 45 9.1 NNE 9 13 5 7 1008.0 1007.4 0.0
16/10:00am 34.7 38.7 23.1 51 8.1 NW 7 13 4 7 1008.3 1007.7 0.0
16/09:30am 33.2 37.0 23.5 56 6.8 W 9 13 5 7 1008.6 1008.0 0.0
16/09:00am 32.3 35.9 23.0 58 6.4 W 9 13 5 7 1008.9 1008.3 0.0
16/08:30am 31.6 35.4 24.0 64 5.3 NW 11 15 6 8 1009.0 1008.5 0.0
16/08:00am 30.3 33.2 23.2 65 4.9 NW 13 17 7 9 1009.2 1008.7 0.0
16/07:30am 29.5 33.1 25.0 77 3.2 NNW 15 19 8 10 1009.3 1008.8 0.0
16/07:00am 28.2 32.8 25.4 85 2.0 NNW 11 17 6 9 1009.1 1008.6 0.0
16/06:30am 27.5 33.3 25.7 90 1.3 N 6 9 3 5 1009.0 1008.5 0.0

Other Formats:

Comma delimited format used in spreadsheet applications
http://www.bom.gov.au/fwo/IDW60801/IDW60801.94204.axf

JavaScript Object Notation format (JSON) in row-major order
http://www.bom.gov.au/fwo/IDW60801/IDW60801.94204.json